Time;durP1;ratioP1;P1;durP2;ratioP2;P2;SDS_P1;SDS_P2;PMS_P1;PMS_P2;Temp;Humidity;BMP_temperature;BMP_pressure;BME280_temperature;BME280_humidity;BME280_pressure;Samples;Min_cycle;Max_cycle;Signal;HPM_P1;HPM_P2
2023/10/23 00:00:08;;;;;;;20.60;11.70;;;;;;;9.61;100.00;100277.67;214219;1285;140316;-86
2023/10/23 00:05:08;;;;;;;24.30;12.00;;;;;;;9.67;100.00;100278.60;214765;1285;138481;-87
2023/10/23 00:10:10;;;;;;;20.40;11.40;;;;;;;9.71;100.00;100281.24;214157;1285;140262;-87
2023/10/23 00:15:10;;;;;;;22.20;11.30;;;;;;;9.76;100.00;100286.09;214845;1285;139056;-86
2023/10/23 00:20:11;;;;;;;21.10;10.90;;;;;;;9.79;100.00;100290.61;214168;1285;140096;-87
2023/10/23 00:25:11;;;;;;;21.30;12.80;;;;;;;9.82;100.00;100298.49;214777;1285;138855;-86
2023/10/23 00:30:12;;;;;;;20.70;9.90;;;;;;;9.86;100.00;100291.64;214304;1285;139986;-86
2023/10/23 00:35:12;;;;;;;17.90;10.60;;;;;;;9.89;100.00;100286.11;214796;1285;138340;-85
2023/10/23 00:40:13;;;;;;;18.10;9.40;;;;;;;9.92;100.00;100284.24;214273;1288;140083;-86
2023/10/23 00:45:13;;;;;;;19.20;9.30;;;;;;;9.94;100.00;100283.71;214742;1285;139469;-87
2023/10/23 00:50:15;;;;;;;15.30;8.60;;;;;;;9.96;100.00;100287.50;214181;1285;140025;-86
2023/10/23 00:55:15;;;;;;;18.50;9.20;;;;;;;9.98;100.00;100283.13;214758;1285;138815;-86
2023/10/23 01:00:17;;;;;;;14.50;8.40;;;;;;;10.00;100.00;100282.61;214268;1284;139903;-87
2023/10/23 01:05:17;;;;;;;14.90;9.30;;;;;;;10.02;100.00;100291.04;214866;1286;99396;-87
2023/10/23 01:10:18;;;;;;;18.40;9.20;;;;;;;10.04;100.00;100292.89;214285;1288;139988;-87
2023/10/23 01:15:18;;;;;;;17.20;9.20;;;;;;;10.09;100.00;100297.19;214686;1285;139180;-87
2023/10/23 01:20:19;;;;;;;15.50;9.10;;;;;;;10.13;100.00;100294.48;214049;1284;140415;-86
2023/10/23 01:25:20;;;;;;;18.70;9.20;;;;;;;10.13;100.00;100295.51;214716;1285;139229;-87
2023/10/23 01:30:21;;;;;;;16.40;8.50;;;;;;;10.15;100.00;100303.85;214312;1285;140615;-86
2023/10/23 01:35:21;;;;;;;16.30;8.60;;;;;;;10.16;100.00;100295.92;214723;1284;98123;-86
2023/10/23 01:40:22;;;;;;;15.10;7.80;;;;;;;10.15;100.00;100292.61;214216;1288;140181;-86
2023/10/23 01:45:23;;;;;;;18.70;9.50;;;;;;;10.15;100.00;100287.66;214706;1288;139292;-84
2023/10/23 01:50:24;;;;;;;16.50;9.10;;;;;;;10.15;100.00;100280.98;214046;1284;140527;-85
2023/10/23 01:55:24;;;;;;;16.90;9.10;;;;;;;10.15;100.00;100275.34;214706;1286;139077;-85
2023/10/23 02:00:25;;;;;;;14.90;7.90;;;;;;;10.17;100.00;100278.48;214212;1283;140179;-85
2023/10/23 02:05:25;;;;;;;14.80;8.50;;;;;;;10.18;100.00;100280.23;214915;1284;111018;-85
2023/10/23 02:10:26;;;;;;;13.80;8.00;;;;;;;10.17;100.00;100282.89;214280;1285;140033;-86
2023/10/23 02:15:26;;;;;;;16.80;7.50;;;;;;;10.15;100.00;100280.05;214823;1285;139269;-86
2023/10/23 02:20:27;;;;;;;15.10;8.90;;;;;;;10.15;100.00;100282.40;214295;1284;140706;-86
2023/10/23 02:25:27;;;;;;;13.40;7.60;;;;;;;10.16;100.00;100284.45;214733;1287;139022;-86
2023/10/23 02:30:28;;;;;;;11.70;7.10;;;;;;;10.13;100.00;100291.25;214359;1284;140164;-85
2023/10/23 02:35:29;;;;;;;14.40;7.50;;;;;;;10.09;100.00;100295.08;214941;1285;101500;-85
2023/10/23 02:40:30;;;;;;;14.50;7.50;;;;;;;10.05;100.00;100292.83;214505;1285;141054;-87
2023/10/23 02:45:32;;;;;;;12.70;7.70;;;;;;;10.04;100.00;100299.33;214707;1285;139032;-86
2023/10/23 02:50:33;;;;;;;13.70;7.50;;;;;;;10.03;100.00;100302.67;214166;1285;140287;-86
2023/10/23 02:55:34;;;;;;;13.20;8.00;;;;;;;10.01;100.00;100315.84;214532;1286;138883;-86
2023/10/23 03:00:35;;;;;;;12.10;7.10;;;;;;;9.99;100.00;100328.79;214199;1288;140704;-86
2023/10/23 03:05:36;;;;;;;14.60;7.20;;;;;;;9.95;100.00;100335.02;214867;1288;97944;-86
2023/10/23 03:10:36;;;;;;;14.20;7.70;;;;;;;9.94;100.00;100340.27;213996;1288;140004;-85
2023/10/23 03:15:37;;;;;;;15.50;6.70;;;;;;;9.94;100.00;100339.31;214493;1285;139117;-86
2023/10/23 03:20:38;;;;;;;13.00;8.10;;;;;;;9.92;100.00;100341.19;214156;1288;139741;-86
2023/10/23 03:25:38;;;;;;;16.80;8.20;;;;;;;9.91;100.00;100350.91;214621;1285;138744;-85
2023/10/23 03:30:38;;;;;;;14.70;8.00;;;;;;;9.86;100.00;100344.41;214027;1284;139919;-86
2023/10/23 03:35:43;;;;;;;14.20;9.00;;;;;;;9.85;100.00;100346.13;214671;1285;98065;-85
2023/10/23 03:40:58;;;;;;;21.50;9.60;;;;;;;9.86;100.00;100351.88;214102;1284;140109;-85
2023/10/23 03:46:04;;;;;;;15.20;9.60;;;;;;;9.85;100.00;100352.73;214526;1285;138720;-85
2023/10/23 03:51:05;;;;;;;13.10;8.10;;;;;;;9.84;100.00;100356.24;214171;1285;140149;-85
2023/10/23 03:56:06;;;;;;;12.60;8.20;;;;;;;9.86;100.00;100359.41;214620;1288;139324;-86
2023/10/23 04:01:06;;;;;;;18.70;9.60;;;;;;;9.87;100.00;100364.36;214091;1285;139979;-85
2023/10/23 04:06:07;;;;;;;13.90;9.80;;;;;;;9.88;100.00;100361.31;214726;1285;99285;-85
2023/10/23 04:11:08;;;;;;;20.40;10.90;;;;;;;9.86;100.00;100360.05;214220;1285;139512;-87
2023/10/23 04:16:08;;;;;;;16.80;10.00;;;;;;;9.86;100.00;100364.90;214768;1284;139819;-86
2023/10/23 04:21:11;;;;;;;20.10;10.70;;;;;;;9.87;100.00;100366.73;214260;1288;140129;-86
2023/10/23 04:26:11;;;;;;;22.40;11.60;;;;;;;9.86;100.00;100369.54;215027;1284;139357;-87
2023/10/23 04:31:12;;;;;;;18.10;11.30;;;;;;;9.86;100.00;100377.48;214030;1286;140122;-86
2023/10/23 04:36:12;;;;;;;19.90;11.90;;;;;;;9.87;100.00;100383.77;214847;1287;97954;-86
2023/10/23 04:41:13;;;;;;;23.00;11.30;;;;;;;9.87;100.00;100373.86;213767;1285;139817;-87
2023/10/23 04:46:13;;;;;;;16.40;11.00;;;;;;;9.89;100.00;100372.86;214476;1288;139798;-86
2023/10/23 04:51:14;;;;;;;20.00;11.00;;;;;;;9.90;100.00;100379.16;214386;1285;140116;-86
2023/10/23 04:56:14;;;;;;;16.40;10.20;;;;;;;9.87;100.00;100378.98;215126;1285;138869;-86
2023/10/23 05:01:16;;;;;;;16.00;10.50;;;;;;;9.86;100.00;100380.14;214288;1285;140218;-86
2023/10/23 05:06:16;;;;;;;20.20;11.30;;;;;;;9.86;100.00;100384.95;214977;1288;104428;-86
2023/10/23 05:11:17;;;;;;;17.60;12.10;;;;;;;9.87;100.00;100389.11;214272;1285;140812;-85
2023/10/23 05:16:17;;;;;;;21.60;13.90;;;;;;;9.82;100.00;100400.73;214827;1285;139279;-85
2023/10/23 05:21:18;;;;;;;21.00;15.10;;;;;;;9.73;100.00;100405.26;214344;1288;140330;-85
2023/10/23 05:26:18;;;;;;;22.20;12.70;;;;;;;9.67;100.00;100409.40;214919;1285;139601;-85
2023/10/23 05:31:19;;;;;;;19.60;12.90;;;;;;;9.60;100.00;100415.19;214230;1285;140417;-85
2023/10/23 05:36:19;;;;;;;36.10;21.60;;;;;;;9.52;100.00;100423.79;214998;1288;139813;-85
2023/10/23 05:41:20;;;;;;;29.70;18.40;;;;;;;9.45;100.00;100426.19;214510;1288;141575;-85
2023/10/23 05:46:20;;;;;;;25.70;16.70;;;;;;;9.39;100.00;100429.86;214688;1285;140853;-84
2023/10/23 05:51:21;;;;;;;18.30;12.40;;;;;;;9.35;100.00;100430.73;214361;1285;139957;-84
2023/10/23 05:56:22;;;;;;;17.40;12.50;;;;;;;9.27;100.00;100430.05;214686;1285;140071;-84
2023/10/23 06:01:22;;;;;;;15.60;10.10;;;;;;;9.23;100.00;100438.63;214536;1285;140168;-83
2023/10/23 06:06:23;;;;;;;16.90;10.70;;;;;;;9.20;100.00;100443.67;214792;1288;210383;-84
2023/10/23 06:11:23;;;;;;;17.30;11.20;;;;;;;9.16;100.00;100439.38;214774;1288;140174;-84
2023/10/23 06:16:24;;;;;;;18.40;10.60;;;;;;;9.13;100.00;100446.38;215547;1284;138948;-84
2023/10/23 06:21:24;;;;;;;19.40;12.80;;;;;;;9.12;100.00;100450.67;215373;1288;141330;-83
2023/10/23 06:26:28;;;;;;;22.20;12.30;;;;;;;9.13;100.00;100455.49;215375;1288;139343;-83
2023/10/23 06:31:29;;;;;;;21.90;14.10;;;;;;;9.15;100.00;100455.44;214244;1285;140329;-83
2023/10/23 06:36:32;;;;;;;23.30;16.10;;;;;;;9.18;100.00;100463.33;214716;1285;139695;-83
2023/10/23 06:41:33;;;;;;;22.40;12.90;;;;;;;9.20;100.00;100463.37;214308;1284;140735;-83
2023/10/23 06:46:34;;;;;;;23.80;15.90;;;;;;;9.22;100.00;100471.73;214991;1285;139241;-83
2023/10/23 06:51:36;;;;;;;27.20;16.90;;;;;;;9.26;100.00;100476.65;214596;1284;154207;-83
2023/10/23 06:56:36;;;;;;;28.30;17.40;;;;;;;9.33;100.00;100482.27;215219;1285;139402;-82
2023/10/23 07:01:37;;;;;;;27.00;17.00;;;;;;;9.42;100.00;100481.40;214715;1285;140707;-83
2023/10/23 07:06:37;;;;;;;29.60;19.30;;;;;;;9.51;100.00;100482.64;214849;1288;138979;-83
2023/10/23 07:11:38;;;;;;;29.50;17.70;;;;;;;9.60;100.00;100487.89;214642;1285;142283;-83
2023/10/23 07:16:38;;;;;;;29.80;19.00;;;;;;;9.68;100.00;100488.88;215014;1285;138779;-83
2023/10/23 07:21:39;;;;;;;28.30;18.60;;;;;;;9.78;100.00;100494.13;214541;1285;140493;-83
2023/10/23 07:26:39;;;;;;;41.10;21.00;;;;;;;9.86;100.00;100498.50;215031;1285;138958;-83
2023/10/23 07:31:40;;;;;;;31.30;19.00;;;;;;;9.96;100.00;100505.71;214240;1285;139838;-83
2023/10/23 07:36:40;;;;;;;33.40;20.20;;;;;;;10.05;100.00;100511.59;215026;1288;139322;-83
2023/10/23 07:41:41;;;;;;;37.20;20.40;;;;;;;10.16;100.00;100507.52;214463;1288;140653;-83
2023/10/23 07:46:43;;;;;;;36.50;18.50;;;;;;;10.27;100.00;100509.64;214903;1288;139095;-84
2023/10/23 07:51:44;;;;;;;28.50;18.70;;;;;;;10.40;100.00;100503.77;214348;1288;141189;-84
2023/10/23 07:56:45;;;;;;;32.90;22.10;;;;;;;10.55;100.00;100500.33;214813;1285;140187;-84
2023/10/23 08:01:46;;;;;;;31.70;19.30;;;;;;;10.72;100.00;100505.80;214225;1288;141133;-84
2023/10/23 08:06:47;;;;;;;29.50;18.30;;;;;;;10.89;100.00;100514.19;214800;1284;139267;-84
2023/10/23 08:11:47;;;;;;;30.80;16.50;;;;;;;11.09;100.00;100524.16;214816;1285;141172;-84
2023/10/23 08:16:51;;;;;;;27.90;16.40;;;;;;;11.27;100.00;100523.39;215260;1288;139779;-83
2023/10/23 08:21:52;;;;;;;23.30;16.10;;;;;;;11.45;100.00;100519.23;215891;1288;140298;-84
2023/10/23 08:26:53;;;;;;;27.40;15.60;;;;;;;11.61;100.00;100517.67;214773;1288;139201;-83
2023/10/23 08:31:53;;;;;;;21.10;15.30;;;;;;;11.83;100.00;100518.16;214392;1286;140453;-84
2023/10/23 08:36:54;;;;;;;21.80;13.10;;;;;;;11.98;100.00;100517.88;215175;1285;139235;-83
2023/10/23 08:41:55;;;;;;;42.10;19.40;;;;;;;12.13;100.00;100524.98;214655;1288;142220;-81
2023/10/23 08:46:55;;;;;;;27.10;16.40;;;;;;;12.28;100.00;100525.00;214992;1285;139091;-80
2023/10/23 08:51:58;;;;;;;79.70;30.80;;;;;;;12.39;100.00;100523.09;214432;1285;140822;-83
2023/10/23 08:57:00;;;;;;;19.00;12.70;;;;;;;12.54;100.00;100520.95;214799;1285;139924;-84
2023/10/23 09:02:00;;;;;;;36.10;17.40;;;;;;;12.65;100.00;100526.45;214428;1285;140361;-82
2023/10/23 09:07:01;;;;;;;41.50;16.20;;;;;;;12.76;100.00;100526.02;214930;1285;139748;-84
2023/10/23 09:12:03;;;;;;;37.30;19.60;;;;;;;12.91;100.00;100530.97;214472;1285;141122;-82
2023/10/23 09:17:04;;;;;;;16.70;9.70;;;;;;;13.11;100.00;100536.34;214817;1285;139295;-83
2023/10/23 09:22:06;;;;;;;21.10;10.60;;;;;;;13.19;100.00;100539.91;214026;1288;140119;-83
2023/10/23 09:27:07;;;;;;;13.10;8.90;;;;;;;13.30;100.00;100535.82;214869;1288;139574;-83
2023/10/23 09:32:07;;;;;;;19.50;9.30;;;;;;;13.47;100.00;100541.30;214274;1285;141186;-83
2023/10/23 09:37:08;;;;;;;18.10;9.40;;;;;;;13.60;100.00;100536.97;215086;1285;139857;-82
2023/10/23 09:42:08;;;;;;;17.00;9.50;;;;;;;13.75;100.00;100534.83;214136;1288;140192;-82
2023/10/23 09:47:11;;;;;;;16.70;10.40;;;;;;;13.92;100.00;100529.54;214671;1286;139547;-83
2023/10/23 09:52:14;;;;;;;22.00;9.70;;;;;;;14.13;100.00;100526.73;214398;1285;140495;-83
2023/10/23 09:57:17;;;;;;;20.10;8.60;;;;;;;14.24;100.00;100527.23;214601;1288;139670;-83
2023/10/23 10:02:20;;;;;;;14.20;7.70;;;;;;;14.30;100.00;100528.23;214378;1288;140221;-83
2023/10/23 10:07:36;;;;;;;15.10;8.40;;;;;;;14.34;100.00;100526.25;215382;1288;139656;-82
2023/10/23 10:12:38;;;;;;;13.60;7.70;;;;;;;14.45;100.00;100516.71;215015;1285;140408;-83
2023/10/23 10:17:41;;;;;;;14.30;8.90;;;;;;;14.63;100.00;100515.94;215521;1286;99257;-84
2023/10/23 10:22:43;;;;;;;15.90;8.10;;;;;;;14.74;100.00;100517.86;214356;1285;139757;-84
2023/10/23 10:27:54;;;;;;;15.60;7.60;;;;;;;14.74;100.00;100520.23;215102;1289;139356;-84
2023/10/23 10:33:01;;;;;;;13.30;6.50;;;;;;;14.75;100.00;100513.51;215084;1288;139878;-86
2023/10/23 10:38:03;;;;;;;14.40;6.50;;;;;;;14.85;100.00;100510.14;215057;1285;139146;-86
2023/10/23 10:43:05;;;;;;;12.10;7.00;;;;;;;14.97;100.00;100505.25;214312;1286;140333;-86
2023/10/23 10:48:09;;;;;;;11.90;6.00;;;;;;;15.06;100.00;100499.02;215059;1285;98017;-87
2023/10/23 10:53:14;;;;;;;10.00;5.80;;;;;;;15.11;100.00;100494.48;214842;1286;140361;-87
2023/10/23 10:58:16;;;;;;;14.10;6.50;;;;;;;15.06;100.00;100489.59;214885;1288;138992;-87
2023/10/23 11:03:17;;;;;;;14.50;6.10;;;;;;;15.06;100.00;100486.98;214269;1291;141127;-88
2023/10/23 11:08:18;;;;;;;12.40;5.90;;;;;;;15.14;100.00;100481.47;215447;1288;139703;-87
2023/10/23 11:13:19;;;;;;;8.60;5.00;;;;;;;15.26;100.00;100481.08;214742;1285;140022;-87
2023/10/23 11:18:19;;;;;;;11.30;4.40;;;;;;;15.34;100.00;100481.67;215162;1285;97973;-89
2023/10/23 11:23:22;;;;;;;9.50;4.50;;;;;;;15.31;100.00;100480.58;214294;1289;139896;-88
2023/10/23 11:28:22;;;;;;;13.30;3.80;;;;;;;15.30;100.00;100492.61;214670;1285;138932;-88
2023/10/23 11:33:23;;;;;;;10.60;3.70;;;;;;;15.35;100.00;100487.06;214240;1288;140185;-88
2023/10/23 11:38:26;;;;;;;31.90;5.30;;;;;;;15.33;100.00;100491.02;214615;1288;139153;-88
2023/10/23 11:43:27;;;;;;;11.80;4.30;;;;;;;15.34;100.00;100482.38;214475;1286;139824;-88
2023/10/23 11:48:28;;;;;;;9.90;4.60;;;;;;;15.41;100.00;100483.52;214757;1286;139206;-87
2023/10/23 11:53:32;;;;;;;9.80;4.30;;;;;;;15.47;100.00;100485.85;214506;1286;140581;-89
2023/10/23 11:58:33;;;;;;;15.00;4.70;;;;;;;15.45;100.00;100486.11;214804;1288;139092;-86
2023/10/23 12:03:34;;;;;;;9.10;5.00;;;;;;;15.45;100.00;100485.95;214322;1285;140123;-88
2023/10/23 12:08:35;;;;;;;9.30;5.10;;;;;;;15.49;100.00;100490.82;214687;1288;139010;-88
2023/10/23 12:13:35;;;;;;;9.80;4.60;;;;;;;15.51;100.00;100493.27;214350;1289;139948;-87
2023/10/23 12:18:36;;;;;;;7.80;4.30;;;;;;;15.54;100.00;100501.41;214667;1285;138939;-87
2023/10/23 12:23:37;;;;;;;6.60;4.20;;;;;;;15.52;100.00;100505.87;214312;1286;140026;-87
2023/10/23 12:28:38;;;;;;;12.90;5.00;;;;;;;15.44;100.00;100509.52;214412;1285;138806;-88
2023/10/23 12:33:38;;;;;;;9.80;4.60;;;;;;;15.41;100.00;100508.17;213976;1289;140022;-87
2023/10/23 12:38:39;;;;;;;8.60;4.40;;;;;;;15.31;100.00;100506.32;214729;1289;138837;-86
2023/10/23 12:43:40;;;;;;;9.70;4.50;;;;;;;15.24;100.00;100499.77;214136;1288;140112;-87
2023/10/23 12:48:43;;;;;;;9.00;4.70;;;;;;;15.19;100.00;100504.25;214744;1289;139309;-87
2023/10/23 12:53:44;;;;;;;8.00;4.70;;;;;;;15.14;100.00;100504.35;214236;1284;139960;-86
2023/10/23 12:58:45;;;;;;;10.00;4.80;;;;;;;15.09;100.00;100505.10;214570;1288;140488;-87
2023/10/23 13:03:45;;;;;;;9.70;5.10;;;;;;;15.04;100.00;100502.44;214069;1290;139715;-86
2023/10/23 13:08:47;;;;;;;8.20;3.80;;;;;;;14.99;100.00;100504.60;214846;1286;138952;-86
2023/10/23 13:13:48;;;;;;;6.50;3.30;;;;;;;14.95;100.00;100502.65;214090;1288;139751;-86
2023/10/23 13:18:49;;;;;;;7.30;2.80;;;;;;;14.89;100.00;100499.05;214801;1288;138919;-85
2023/10/23 13:23:49;;;;;;;6.30;3.10;;;;;;;14.83;100.00;100490.60;214346;1286;140212;-85
2023/10/23 13:28:49;;;;;;;5.60;2.80;;;;;;;14.77;100.00;100491.89;214588;1288;138972;-86
2023/10/23 13:33:50;;;;;;;5.50;2.70;;;;;;;14.71;100.00;100487.17;214201;1288;139906;-87
2023/10/23 13:38:50;;;;;;;7.90;3.10;;;;;;;14.65;100.00;100484.35;214926;1288;138883;-86
2023/10/23 13:43:51;;;;;;;6.20;2.70;;;;;;;14.58;100.00;100483.29;214645;1288;139793;-85
2023/10/23 13:48:52;;;;;;;7.20;2.90;;;;;;;14.51;100.00;100490.91;215961;1289;139065;-85
2023/10/23 13:53:52;;;;;;;10.20;4.00;;;;;;;14.45;100.00;100485.07;215022;1286;139657;-85
2023/10/23 13:58:53;;;;;;;9.70;4.30;;;;;;;14.38;100.00;100485.33;215083;1285;139396;-85
2023/10/23 14:03:53;;;;;;;6.80;3.20;;;;;;;14.33;100.00;100481.31;215287;1286;140262;-84
2023/10/23 14:08:54;;;;;;;5.60;3.40;;;;;;;14.25;100.00;100476.29;215759;1285;139339;-86
2023/10/23 14:13:54;;;;;;;9.50;3.90;;;;;;;14.21;100.00;100477.39;214979;1286;139938;-85
2023/10/23 14:18:55;;;;;;;7.40;3.40;;;;;;;14.15;100.00;100475.10;214815;1289;138839;-85
2023/10/23 14:23:55;;;;;;;8.10;3.40;;;;;;;14.07;100.00;100469.81;214261;1289;140298;-85
2023/10/23 14:28:56;;;;;;;6.70;3.40;;;;;;;13.99;100.00;100461.99;214748;1288;138817;-85
2023/10/23 14:33:57;;;;;;;8.00;3.90;;;;;;;13.93;100.00;100470.56;214189;1287;139789;-84
2023/10/23 14:38:57;;;;;;;7.40;3.50;;;;;;;13.87;100.00;100463.61;214737;1285;138861;-84
2023/10/23 14:43:59;;;;;;;6.20;3.10;;;;;;;13.78;100.00;100461.02;214188;1288;140690;-85
2023/10/23 14:48:59;;;;;;;5.80;3.40;;;;;;;13.69;100.00;100457.71;214811;1285;139292;-84
2023/10/23 14:54:00;;;;;;;8.50;3.60;;;;;;;13.60;100.00;100453.54;214413;1288;139319;-85
2023/10/23 14:59:00;;;;;;;6.90;3.50;;;;;;;13.47;100.00;100458.98;214465;1287;231462;-85
2023/10/23 15:04:02;;;;;;;8.90;4.20;;;;;;;13.33;100.00;100456.38;214594;1288;140735;-85
2023/10/23 15:09:04;;;;;;;8.80;3.60;;;;;;;13.18;100.00;100462.77;214571;1285;138863;-85
2023/10/23 15:14:06;;;;;;;5.90;3.20;;;;;;;13.05;100.00;100463.86;214133;1285;139548;-86
2023/10/23 15:19:07;;;;;;;7.10;4.00;;;;;;;12.93;100.00;100457.18;214675;1286;138865;-86
2023/10/23 15:24:09;;;;;;;9.30;4.40;;;;;;;12.83;100.00;100459.04;214716;1286;151921;-85
2023/10/23 15:29:09;;;;;;;9.80;4.90;;;;;;;12.71;100.00;100461.06;214299;1284;140419;-86
2023/10/23 15:34:10;;;;;;;9.50;4.70;;;;;;;12.57;100.00;100464.80;214632;1288;138702;-85
2023/10/23 15:39:11;;;;;;;10.90;5.20;;;;;;;12.41;100.00;100469.78;214045;1288;140639;-85
2023/10/23 15:44:12;;;;;;;10.50;7.40;;;;;;;12.27;100.00;100476.27;214774;1288;138997;-85
2023/10/23 15:49:13;;;;;;;11.80;7.80;;;;;;;12.10;100.00;100475.70;214387;1283;140714;-85
2023/10/23 15:54:13;;;;;;;13.40;7.40;;;;;;;11.95;100.00;100476.16;214930;1284;98117;-85
2023/10/23 15:59:14;;;;;;;12.90;7.50;;;;;;;11.82;100.00;100476.88;214134;1288;140091;-84
2023/10/23 16:04:15;;;;;;;16.80;8.40;;;;;;;11.67;100.00;100484.87;214686;1288;139428;-86
2023/10/23 16:09:15;;;;;;;41.00;18.70;;;;;;;11.52;100.00;100489.77;213892;1286;139860;-86
2023/10/23 16:14:16;;;;;;;17.40;9.90;;;;;;;11.36;100.00;100490.58;214578;1285;139369;-86
2023/10/23 16:19:17;;;;;;;37.60;15.80;;;;;;;11.17;100.00;100489.30;214188;1285;140631;-86
2023/10/23 16:24:17;;;;;;;30.20;13.60;;;;;;;11.03;100.00;100487.51;214895;1289;97970;-86
2023/10/23 16:29:18;;;;;;;34.40;20.20;;;;;;;10.86;100.00;100485.21;214026;1286;140572;-86
2023/10/23 16:34:18;;;;;;;35.40;23.20;;;;;;;10.75;100.00;100485.95;214736;1286;139098;-86
2023/10/23 16:39:19;;;;;;;29.60;21.70;;;;;;;10.63;100.00;100486.04;214358;1288;140439;-86
2023/10/23 16:44:19;;;;;;;38.30;23.40;;;;;;;10.46;100.00;100484.73;214582;1285;139266;-86
2023/10/23 16:49:20;;;;;;;38.40;24.90;;;;;;;10.29;100.00;100481.14;214105;1285;140556;-86
2023/10/23 16:54:21;;;;;;;35.10;26.20;;;;;;;10.22;100.00;100478.23;214983;1285;98028;-86
2023/10/23 16:59:21;;;;;;;36.30;26.90;;;;;;;10.14;100.00;100482.20;214339;1285;140406;-86
2023/10/23 17:04:22;;;;;;;45.50;30.80;;;;;;;10.05;100.00;100476.02;214970;1285;139144;-86
2023/10/23 17:09:23;;;;;;;37.20;25.90;;;;;;;9.92;100.00;100475.11;214509;1285;140507;-85
2023/10/23 17:14:23;;;;;;;256.70;86.70;;;;;;;9.80;100.00;100473.67;215194;1286;139148;-84
2023/10/23 17:19:24;;;;;;;149.00;52.80;;;;;;;9.71;100.00;100472.52;214488;1286;140305;-85
2023/10/23 17:24:25;;;;;;;148.70;47.70;;;;;;;9.59;100.00;100466.11;215298;1283;139595;-87
2023/10/23 17:29:26;;;;;;;213.60;62.30;;;;;;;9.45;100.00;100467.16;214946;1284;140377;-87
2023/10/23 17:34:29;;;;;;;118.10;46.00;;;;;;;9.33;100.00;100462.17;215473;1285;140682;-88
2023/10/23 17:39:30;;;;;;;81.60;35.70;;;;;;;9.26;100.00;100461.42;214682;1286;141302;-87
2023/10/23 17:44:31;;;;;;;101.20;42.90;;;;;;;9.19;100.00;100462.80;215183;1286;138862;-87
2023/10/23 17:49:32;;;;;;;94.20;41.20;;;;;;;9.10;100.00;100464.53;214464;1283;160649;-88
2023/10/23 17:54:33;;;;;;;110.00;45.50;;;;;;;8.99;100.00;100461.51;215620;1286;139064;-87
2023/10/23 17:59:34;;;;;;;110.70;43.50;;;;;;;8.93;100.00;100460.29;215101;1285;140992;-88
2023/10/23 18:04:34;;;;;;;94.20;37.70;;;;;;;8.84;100.00;100455.36;215091;1285;139600;-87
2023/10/23 18:09:35;;;;;;;87.40;35.40;;;;;;;8.77;100.00;100451.30;214541;1285;140695;-89
2023/10/23 18:14:36;;;;;;;78.90;33.40;;;;;;;8.72;100.00;100450.02;215156;1287;139160;-88
2023/10/23 18:19:36;;;;;;;60.60;26.80;;;;;;;8.65;100.00;100453.19;214706;1285;140072;-87
2023/10/23 18:24:37;;;;;;;73.30;32.90;;;;;;;8.57;100.00;100456.10;215130;1283;140194;-88
2023/10/23 18:29:38;;;;;;;52.50;26.20;;;;;;;8.49;100.00;100457.81;214714;1286;139889;-87
2023/10/23 18:34:38;;;;;;;77.80;35.70;;;;;;;8.43;100.00;100449.06;215018;1284;139863;-88
2023/10/23 18:39:39;;;;;;;79.50;37.60;;;;;;;8.37;100.00;100442.36;214397;1288;139900;-88
2023/10/23 18:44:42;;;;;;;61.20;30.50;;;;;;;8.28;100.00;100434.35;214618;1284;139796;-87
2023/10/23 18:49:44;;;;;;;145.70;61.00;;;;;;;8.23;100.00;100431.83;214007;1286;491610;-88
2023/10/23 18:54:44;;;;;;;168.90;68.60;;;;;;;8.18;100.00;100430.04;214551;1283;139387;-88
2023/10/23 18:59:45;;;;;;;91.70;42.40;;;;;;;8.10;100.00;100433.95;214905;1285;140589;-86
2023/10/23 19:04:47;;;;;;;78.30;38.70;;;;;;;8.02;100.00;100431.20;215125;1286;138656;-85
2023/10/23 19:09:48;;;;;;;48.20;26.50;;;;;;;7.96;100.00;100429.02;214299;1288;140059;-86
2023/10/23 19:14:50;;;;;;;84.90;41.20;;;;;;;7.88;100.00;100426.91;215062;1285;138934;-86
2023/10/23 19:19:51;;;;;;;107.40;47.00;;;;;;;7.84;100.00;100428.46;215017;1285;140737;-87
2023/10/23 19:24:52;;;;;;;88.50;40.40;;;;;;;7.79;100.00;100427.80;215019;1285;139181;-88
2023/10/23 19:29:53;;;;;;;64.10;31.60;;;;;;;7.73;100.00;100428.14;215223;1285;141331;-87
2023/10/23 19:34:54;;;;;;;58.80;28.00;;;;;;;7.69;100.00;100426.80;215263;1287;138692;-89
2023/10/23 19:39:55;;;;;;;60.80;29.80;;;;;;;7.64;100.00;100425.56;214948;1288;140769;-87
2023/10/23 19:44:56;;;;;;;59.80;29.30;;;;;;;7.57;100.00;100421.67;215368;1285;139469;-88
2023/10/23 19:49:57;;;;;;;67.80;29.60;;;;;;;7.51;100.00;100425.45;214464;1285;140386;-88
2023/10/23 19:54:58;;;;;;;60.20;28.50;;;;;;;7.48;100.00;100429.66;215032;1284;139047;-89
2023/10/23 19:59:59;;;;;;;65.30;32.50;;;;;;;7.43;100.00;100427.44;214651;1285;139792;-89
2023/10/23 20:04:59;;;;;;;165.40;50.50;;;;;;;7.37;100.00;100429.11;215140;1285;140070;-88
2023/10/23 20:10:03;;;;;;;141.60;47.50;;;;;;;7.34;100.00;100435.36;214811;1286;141773;-88
2023/10/23 20:15:04;;;;;;;158.00;50.40;;;;;;;7.29;100.00;100441.33;215352;1285;139683;-88
2023/10/23 20:20:06;;;;;;;153.90;55.10;;;;;;;7.24;100.00;100441.79;214704;1285;140359;-90
2023/10/23 20:25:07;;;;;;;129.30;49.30;;;;;;;7.21;100.00;100441.92;215292;1285;139201;-86
2023/10/23 20:30:09;;;;;;;108.30;42.70;;;;;;;7.17;100.00;100443.93;214544;1285;140019;-88
2023/10/23 20:35:10;;;;;;;71.70;33.80;;;;;;;7.12;100.00;100444.98;215257;1283;138910;-87
2023/10/23 20:40:11;;;;;;;83.50;37.50;;;;;;;7.04;100.00;100437.06;214329;1284;140321;-87
2023/10/23 20:45:13;;;;;;;133.20;50.20;;;;;;;7.02;100.00;100438.17;214928;1288;138983;-85
2023/10/23 20:50:13;;;;;;;111.90;45.20;;;;;;;7.00;100.00;100435.91;214442;1284;140295;-86
2023/10/23 20:55:14;;;;;;;123.60;48.50;;;;;;;6.96;100.00;100427.38;214972;1288;139537;-85
2023/10/23 21:00:15;;;;;;;124.80;49.60;;;;;;;6.94;100.00;100422.33;214561;1286;140782;-86
2023/10/23 21:05:15;;;;;;;88.40;41.50;;;;;;;6.91;100.00;100416.61;214967;1288;138715;-86
2023/10/23 21:10:16;;;;;;;107.90;46.20;;;;;;;6.85;100.00;100409.98;214370;1285;140364;-86
2023/10/23 21:15:16;;;;;;;150.90;60.70;;;;;;;6.83;100.00;100408.36;214993;1289;139019;-87
2023/10/23 21:20:17;;;;;;;108.80;46.80;;;;;;;6.82;100.00;100405.06;214411;1288;140220;-85
2023/10/23 21:25:17;;;;;;;104.70;47.40;;;;;;;6.79;100.00;100404.03;214798;1285;140241;-86
2023/10/23 21:30:18;;;;;;;93.50;42.80;;;;;;;6.76;100.00;100405.61;214469;1285;140387;-87
2023/10/23 21:35:19;;;;;;;97.80;45.20;;;;;;;6.73;100.00;100402.17;214851;1285;139751;-87
2023/10/23 21:40:20;;;;;;;124.80;47.40;;;;;;;6.71;100.00;100402.67;214937;1285;140720;-85
2023/10/23 21:45:20;;;;;;;138.90;50.60;;;;;;;6.71;100.00;100395.39;215658;1285;139776;-85
2023/10/23 21:50:20;;;;;;;179.10;60.60;;;;;;;6.70;100.00;100386.47;214752;1285;141405;-85
2023/10/23 21:55:23;;;;;;;181.00;63.50;;;;;;;6.76;100.00;100381.60;215844;1285;139321;-85
2023/10/23 22:00:27;;;;;;;152.60;59.90;;;;;;;6.82;100.00;100374.12;215110;1288;140115;-85
2023/10/23 22:05:28;;;;;;;159.90;56.70;;;;;;;6.86;100.00;100366.33;215939;1285;97934;-85
2023/10/23 22:10:29;;;;;;;113.10;45.80;;;;;;;6.89;100.00;100365.23;214563;1288;140126;-85
2023/10/23 22:15:29;;;;;;;166.60;60.10;;;;;;;6.92;100.00;100363.59;215111;1288;139794;-84